sensor_id;sensor_type;location;lat;lon;timestamp;temperature;humidity
19033;DHT22;9649;51.042;13.804;2023-09-07T00:01:18;17.20;92.30
19033;DHT22;9649;51.042;13.804;2023-09-07T00:06:21;17.20;93.20
19033;DHT22;9649;51.042;13.804;2023-09-07T00:11:26;17.20;90.30
19033;DHT22;9649;51.042;13.804;2023-09-07T00:16:31;17.00;99.90
19033;DHT22;9649;51.042;13.804;2023-09-07T00:21:35;16.80;99.90
19033;DHT22;9649;51.042;13.804;2023-09-07T00:26:40;16.80;99.90
19033;DHT22;9649;51.042;13.804;2023-09-07T00:31:43;16.80;99.90
19033;DHT22;9649;51.042;13.804;2023-09-07T00:36:46;16.90;99.90
19033;DHT22;9649;51.042;13.804;2023-09-07T00:41:50;16.60;99.90
19033;DHT22;9649;51.042;13.804;2023-09-07T00:46:53;16.50;99.90
19033;DHT22;9649;51.042;13.804;2023-09-07T00:51:58;16.50;99.90
19033;DHT22;9649;51.042;13.804;2023-09-07T00:57:03;16.40;99.90
19033;DHT22;9649;51.042;13.804;2023-09-07T01:02:08;16.20;99.90
19033;DHT22;9649;51.042;13.804;2023-09-07T01:07:16;16.20;99.90
19033;DHT22;9649;51.042;13.804;2023-09-07T01:12:21;16.20;99.90
19033;DHT22;9649;51.042;13.804;2023-09-07T01:17:28;16.00;99.90
19033;DHT22;9649;51.042;13.804;2023-09-07T01:22:50;15.90;99.90
19033;DHT22;9649;51.042;13.804;2023-09-07T01:28:02;15.90;99.90
19033;DHT22;9649;51.042;13.804;2023-09-07T01:33:06;15.80;99.90
19033;DHT22;9649;51.042;13.804;2023-09-07T01:38:14;15.70;99.90
19033;DHT22;9649;51.042;13.804;2023-09-07T01:43:17;15.70;99.90
19033;DHT22;9649;51.042;13.804;2023-09-07T01:48:21;15.80;99.90
19033;DHT22;9649;51.042;13.804;2023-09-07T01:53:26;15.90;99.90
19033;DHT22;9649;51.042;13.804;2023-09-07T01:58:33;15.70;99.90
19033;DHT22;9649;51.042;13.804;2023-09-07T02:03:39;15.70;99.90
19033;DHT22;9649;51.042;13.804;2023-09-07T02:08:43;15.70;99.90
19033;DHT22;9649;51.042;13.804;2023-09-07T02:13:50;15.70;99.90
19033;DHT22;9649;51.042;13.804;2023-09-07T02:19:02;15.60;99.90
19033;DHT22;9649;51.042;13.804;2023-09-07T02:24:13;15.50;99.90
19033;DHT22;9649;51.042;13.804;2023-09-07T02:29:26;15.40;99.90
19033;DHT22;9649;51.042;13.804;2023-09-07T02:34:38;15.40;99.90
19033;DHT22;9649;51.042;13.804;2023-09-07T02:39:49;15.40;99.90
19033;DHT22;9649;51.042;13.804;2023-09-07T02:44:56;15.40;99.90
19033;DHT22;9649;51.042;13.804;2023-09-07T02:50:09;15.10;99.90
19033;DHT22;9649;51.042;13.804;2023-09-07T02:55:13;15.10;99.90
19033;DHT22;9649;51.042;13.804;2023-09-07T03:00:17;15.00;99.90
19033;DHT22;9649;51.042;13.804;2023-09-07T03:05:22;15.00;99.90
19033;DHT22;9649;51.042;13.804;2023-09-07T03:10:26;14.90;99.90
19033;DHT22;9649;51.042;13.804;2023-09-07T03:15:29;15.00;99.90
19033;DHT22;9649;51.042;13.804;2023-09-07T03:20:33;14.80;99.90
19033;DHT22;9649;51.042;13.804;2023-09-07T03:25:41;14.90;99.90
19033;DHT22;9649;51.042;13.804;2023-09-07T03:30:44;14.90;99.90
19033;DHT22;9649;51.042;13.804;2023-09-07T03:35:47;14.80;99.90
19033;DHT22;9649;51.042;13.804;2023-09-07T03:41:10;14.70;99.90
19033;DHT22;9649;51.042;13.804;2023-09-07T03:46:13;14.50;99.90
19033;DHT22;9649;51.042;13.804;2023-09-07T03:51:17;14.40;99.90
19033;DHT22;9649;51.042;13.804;2023-09-07T03:56:21;14.20;99.90
19033;DHT22;9649;51.042;13.804;2023-09-07T04:01:25;14.20;99.90
19033;DHT22;9649;51.042;13.804;2023-09-07T04:06:28;14.10;99.90
19033;DHT22;9649;51.042;13.804;2023-09-07T04:11:33;14.10;99.90
19033;DHT22;9649;51.042;13.804;2023-09-07T04:16:37;14.00;99.90
19033;DHT22;9649;51.042;13.804;2023-09-07T04:21:44;13.90;99.90
19033;DHT22;9649;51.042;13.804;2023-09-07T04:26:49;14.00;99.90
19033;DHT22;9649;51.042;13.804;2023-09-07T04:31:53;14.00;99.90
19033;DHT22;9649;51.042;13.804;2023-09-07T04:42:49;14.20;99.90
19033;DHT22;9649;51.042;13.804;2023-09-07T04:48:14;14.10;99.90
19033;DHT22;9649;51.042;13.804;2023-09-07T04:53:36;14.10;99.90
19033;DHT22;9649;51.042;13.804;2023-09-07T04:58:57;14.00;99.90
19033;DHT22;9649;51.042;13.804;2023-09-07T05:04:00;14.00;99.90
19033;DHT22;9649;51.042;13.804;2023-09-07T05:09:05;14.30;99.90
19033;DHT22;9649;51.042;13.804;2023-09-07T05:14:09;14.60;99.90
19033;DHT22;9649;51.042;13.804;2023-09-07T05:19:13;14.80;99.90
19033;DHT22;9649;51.042;13.804;2023-09-07T05:24:16;14.90;99.90
19033;DHT22;9649;51.042;13.804;2023-09-07T05:29:20;15.00;99.90
19033;DHT22;9649;51.042;13.804;2023-09-07T05:34:24;15.20;99.90
19033;DHT22;9649;51.042;13.804;2023-09-07T05:39:27;15.20;99.90
19033;DHT22;9649;51.042;13.804;2023-09-07T05:44:31;15.50;99.90
19033;DHT22;9649;51.042;13.804;2023-09-07T05:49:34;15.80;99.90
19033;DHT22;9649;51.042;13.804;2023-09-07T05:54:36;16.00;99.90
19033;DHT22;9649;51.042;13.804;2023-09-07T05:59:41;16.20;99.90
19033;DHT22;9649;51.042;13.804;2023-09-07T06:04:43;16.40;99.90
19033;DHT22;9649;51.042;13.804;2023-09-07T06:09:46;16.60;86.30
19033;DHT22;9649;51.042;13.804;2023-09-07T06:14:50;16.90;1.00
19033;DHT22;9649;51.042;13.804;2023-09-07T06:19:54;17.10;1.00
19033;DHT22;9649;51.042;13.804;2023-09-07T06:24:58;17.20;1.00
19033;DHT22;9649;51.042;13.804;2023-09-07T06:30:02;17.50;1.00
19033;DHT22;9649;51.042;13.804;2023-09-07T06:35:06;17.70;1.00
19033;DHT22;9649;51.042;13.804;2023-09-07T06:40:10;17.80;1.00
19033;DHT22;9649;51.042;13.804;2023-09-07T06:45:14;18.10;1.00
19033;DHT22;9649;51.042;13.804;2023-09-07T06:50:17;18.40;19.00
19033;DHT22;9649;51.042;13.804;2023-09-07T06:55:20;18.70;1.00
19033;DHT22;9649;51.042;13.804;2023-09-07T07:00:24;18.90;1.00
19033;DHT22;9649;51.042;13.804;2023-09-07T07:05:28;19.20;1.00
19033;DHT22;9649;51.042;13.804;2023-09-07T07:10:31;19.40;99.90
19033;DHT22;9649;51.042;13.804;2023-09-07T07:15:35;19.70;1.00
19033;DHT22;9649;51.042;13.804;2023-09-07T07:20:55;20.00;1.00
19033;DHT22;9649;51.042;13.804;2023-09-07T07:25:58;20.20;1.00
19033;DHT22;9649;51.042;13.804;2023-09-07T07:31:08;20.50;1.00
19033;DHT22;9649;51.042;13.804;2023-09-07T07:36:11;20.70;1.00
19033;DHT22;9649;51.042;13.804;2023-09-07T07:41:15;20.90;1.00
19033;DHT22;9649;51.042;13.804;2023-09-07T07:46:19;21.20;99.90
19033;DHT22;9649;51.042;13.804;2023-09-07T07:51:22;21.50;1.00
19033;DHT22;9649;51.042;13.804;2023-09-07T07:56:25;22.40;99.90
19033;DHT22;9649;51.042;13.804;2023-09-07T08:01:30;24.50;1.00
19033;DHT22;9649;51.042;13.804;2023-09-07T08:06:34;27.60;1.00
19033;DHT22;9649;51.042;13.804;2023-09-07T08:11:37;29.10;99.90
19033;DHT22;9649;51.042;13.804;2023-09-07T08:16:43;31.10;99.90
19033;DHT22;9649;51.042;13.804;2023-09-07T08:21:50;31.90;99.90
19033;DHT22;9649;51.042;13.804;2023-09-07T08:27:07;33.60;99.90
19033;DHT22;9649;51.042;13.804;2023-09-07T08:32:37;33.60;99.90
19033;DHT22;9649;51.042;13.804;2023-09-07T08:38:03;35.40;99.90
19033;DHT22;9649;51.042;13.804;2023-09-07T08:43:19;36.90;99.90
19033;DHT22;9649;51.042;13.804;2023-09-07T08:49:03;37.30;99.40
19033;DHT22;9649;51.042;13.804;2023-09-07T08:54:19;37.90;99.90
19033;DHT22;9649;51.042;13.804;2023-09-07T08:59:25;38.20;84.80
19033;DHT22;9649;51.042;13.804;2023-09-07T09:04:54;37.60;30.50
19033;DHT22;9649;51.042;13.804;2023-09-07T09:10:25;39.40;63.60
19033;DHT22;9649;51.042;13.804;2023-09-07T09:15:41;40.20;20.50
19033;DHT22;9649;51.042;13.804;2023-09-07T09:20:59;41.00;6.90
19033;DHT22;9649;51.042;13.804;2023-09-07T09:26:29;42.80;1.00
19033;DHT22;9649;51.042;13.804;2023-09-07T09:31:39;43.70;1.00
19033;DHT22;9649;51.042;13.804;2023-09-07T09:37:03;43.50;1.00
19033;DHT22;9649;51.042;13.804;2023-09-07T09:42:16;42.80;1.00
19033;DHT22;9649;51.042;13.804;2023-09-07T09:47:53;43.20;1.00
19033;DHT22;9649;51.042;13.804;2023-09-07T09:53:11;41.80;1.00
19033;DHT22;9649;51.042;13.804;2023-09-07T09:58:43;41.60;1.00
19033;DHT22;9649;51.042;13.804;2023-09-07T10:04:00;42.70;1.00
19033;DHT22;9649;51.042;13.804;2023-09-07T10:09:44;45.10;1.00
19033;DHT22;9649;51.042;13.804;2023-09-07T10:15:01;46.40;1.00
19033;DHT22;9649;51.042;13.804;2023-09-07T10:20:18;46.80;1.00
19033;DHT22;9649;51.042;13.804;2023-09-07T10:25:25;46.50;1.00
19033;DHT22;9649;51.042;13.804;2023-09-07T10:30:46;47.10;1.00
19033;DHT22;9649;51.042;13.804;2023-09-07T10:36:23;44.80;1.00
19033;DHT22;9649;51.042;13.804;2023-09-07T10:41:41;43.20;1.00
19033;DHT22;9649;51.042;13.804;2023-09-07T10:46:50;43.70;1.00
19033;DHT22;9649;51.042;13.804;2023-09-07T10:51:58;47.30;1.00
19033;DHT22;9649;51.042;13.804;2023-09-07T10:57:11;49.80;1.00
19033;DHT22;9649;51.042;13.804;2023-09-07T11:02:26;51.50;1.00
19033;DHT22;9649;51.042;13.804;2023-09-07T11:07:36;52.20;1.00
19033;DHT22;9649;51.042;13.804;2023-09-07T11:12:42;50.70;1.00
19033;DHT22;9649;51.042;13.804;2023-09-07T11:17:45;48.30;1.00
19033;DHT22;9649;51.042;13.804;2023-09-07T11:22:49;47.20;1.00
19033;DHT22;9649;51.042;13.804;2023-09-07T11:28:08;45.70;1.00
19033;DHT22;9649;51.042;13.804;2023-09-07T11:33:12;45.50;1.00
19033;DHT22;9649;51.042;13.804;2023-09-07T11:38:29;46.20;1.00
19033;DHT22;9649;51.042;13.804;2023-09-07T11:43:37;45.20;1.00
19033;DHT22;9649;51.042;13.804;2023-09-07T11:48:58;47.90;1.00
19033;DHT22;9649;51.042;13.804;2023-09-07T11:54:35;46.10;1.00
19033;DHT22;9649;51.042;13.804;2023-09-07T11:59:55;46.20;1.00
19033;DHT22;9649;51.042;13.804;2023-09-07T12:11:07;47.60;1.00
19033;DHT22;9649;51.042;13.804;2023-09-07T12:16:39;48.20;1.00
19033;DHT22;9649;51.042;13.804;2023-09-07T12:22:22;44.20;1.00
19033;DHT22;9649;51.042;13.804;2023-09-07T12:28:10;45.00;1.00
19033;DHT22;9649;51.042;13.804;2023-09-07T12:33:47;42.90;1.00
19033;DHT22;9649;51.042;13.804;2023-09-07T12:39:28;42.20;1.00
19033;DHT22;9649;51.042;13.804;2023-09-07T12:45:11;40.50;1.00
19033;DHT22;9649;51.042;13.804;2023-09-07T12:50:48;40.30;1.00
19033;DHT22;9649;51.042;13.804;2023-09-07T12:55:54;41.60;1.00
19033;DHT22;9649;51.042;13.804;2023-09-07T13:01:08;42.80;1.00
19033;DHT22;9649;51.042;13.804;2023-09-07T13:11:31;42.40;1.00
19033;DHT22;9649;51.042;13.804;2023-09-07T13:16:38;44.00;1.00
19033;DHT22;9649;51.042;13.804;2023-09-07T13:21:41;44.50;1.00
19033;DHT22;9649;51.042;13.804;2023-09-07T13:26:48;44.20;1.00
19033;DHT22;9649;51.042;13.804;2023-09-07T13:31:51;42.90;1.00
19033;DHT22;9649;51.042;13.804;2023-09-07T13:36:55;43.40;1.00
19033;DHT22;9649;51.042;13.804;2023-09-07T13:42:00;44.10;1.00
19033;DHT22;9649;51.042;13.804;2023-09-07T13:47:02;41.60;1.00
19033;DHT22;9649;51.042;13.804;2023-09-07T13:52:06;42.30;1.00
19033;DHT22;9649;51.042;13.804;2023-09-07T13:57:16;42.90;1.00
19033;DHT22;9649;51.042;13.804;2023-09-07T14:02:22;43.40;1.00
19033;DHT22;9649;51.042;13.804;2023-09-07T14:07:25;41.70;1.00
19033;DHT22;9649;51.042;13.804;2023-09-07T14:12:29;39.80;1.00
19033;DHT22;9649;51.042;13.804;2023-09-07T14:17:32;38.70;1.00
19033;DHT22;9649;51.042;13.804;2023-09-07T14:22:35;38.80;1.00
19033;DHT22;9649;51.042;13.804;2023-09-07T14:27:42;40.30;1.00
19033;DHT22;9649;51.042;13.804;2023-09-07T14:32:45;40.90;1.00
19033;DHT22;9649;51.042;13.804;2023-09-07T14:37:50;40.50;1.00
19033;DHT22;9649;51.042;13.804;2023-09-07T14:43:01;39.50;1.00
19033;DHT22;9649;51.042;13.804;2023-09-07T14:48:05;39.50;1.00
19033;DHT22;9649;51.042;13.804;2023-09-07T14:53:09;39.80;1.00
19033;DHT22;9649;51.042;13.804;2023-09-07T14:58:13;39.30;1.00
19033;DHT22;9649;51.042;13.804;2023-09-07T15:03:16;38.40;1.00
19033;DHT22;9649;51.042;13.804;2023-09-07T15:08:19;38.70;1.00
19033;DHT22;9649;51.042;13.804;2023-09-07T15:13:23;39.00;1.00
19033;DHT22;9649;51.042;13.804;2023-09-07T15:18:29;40.40;1.00
19033;DHT22;9649;51.042;13.804;2023-09-07T15:23:34;39.50;1.00
19033;DHT22;9649;51.042;13.804;2023-09-07T15:28:53;39.60;1.00
19033;DHT22;9649;51.042;13.804;2023-09-07T15:34:05;38.50;1.00
19033;DHT22;9649;51.042;13.804;2023-09-07T15:39:21;39.20;1.00
19033;DHT22;9649;51.042;13.804;2023-09-07T15:44:58;38.20;1.00
19033;DHT22;9649;51.042;13.804;2023-09-07T15:50:23;35.60;1.00
19033;DHT22;9649;51.042;13.804;2023-09-07T15:56:37;34.40;1.00
19033;DHT22;9649;51.042;13.804;2023-09-07T16:08:08;32.40;1.00
19033;DHT22;9649;51.042;13.804;2023-09-07T16:14:03;32.20;1.00
19033;DHT22;9649;51.042;13.804;2023-09-07T16:19:40;31.80;1.00
19033;DHT22;9649;51.042;13.804;2023-09-07T16:25:10;31.50;1.00
19033;DHT22;9649;51.042;13.804;2023-09-07T16:30:13;31.20;1.00
19033;DHT22;9649;51.042;13.804;2023-09-07T16:35:24;30.80;1.00
19033;DHT22;9649;51.042;13.804;2023-09-07T16:40:27;30.50;1.00
19033;DHT22;9649;51.042;13.804;2023-09-07T16:45:30;30.30;10.00
19033;DHT22;9649;51.042;13.804;2023-09-07T16:50:35;29.90;39.80
19033;DHT22;9649;51.042;13.804;2023-09-07T16:55:39;29.60;82.30
19033;DHT22;9649;51.042;13.804;2023-09-07T17:00:42;29.40;99.90
19033;DHT22;9649;51.042;13.804;2023-09-07T17:05:47;29.20;99.90
19033;DHT22;9649;51.042;13.804;2023-09-07T17:11:14;29.20;99.90
19033;DHT22;9649;51.042;13.804;2023-09-07T17:16:20;28.70;99.90
19033;DHT22;9649;51.042;13.804;2023-09-07T17:21:27;28.30;99.90
19033;DHT22;9649;51.042;13.804;2023-09-07T17:26:30;27.90;99.90
19033;DHT22;9649;51.042;13.804;2023-09-07T17:31:41;27.60;99.90
19033;DHT22;9649;51.042;13.804;2023-09-07T17:36:46;27.20;99.90
19033;DHT22;9649;51.042;13.804;2023-09-07T17:41:49;27.00;99.90
19033;DHT22;9649;51.042;13.804;2023-09-07T17:46:52;26.70;1.00
19033;DHT22;9649;51.042;13.804;2023-09-07T17:51:56;26.50;1.00
19033;DHT22;9649;51.042;13.804;2023-09-07T17:56:59;26.10;1.00
19033;DHT22;9649;51.042;13.804;2023-09-07T18:02:03;25.90;1.00
19033;DHT22;9649;51.042;13.804;2023-09-07T18:07:07;25.70;1.00
19033;DHT22;9649;51.042;13.804;2023-09-07T18:12:10;25.60;1.00
19033;DHT22;9649;51.042;13.804;2023-09-07T18:17:13;25.40;1.00
19033;DHT22;9649;51.042;13.804;2023-09-07T18:22:17;25.20;1.00
19033;DHT22;9649;51.042;13.804;2023-09-07T18:27:20;25.10;1.00
19033;DHT22;9649;51.042;13.804;2023-09-07T18:32:23;25.20;1.00
19033;DHT22;9649;51.042;13.804;2023-09-07T18:37:30;25.00;1.00
19033;DHT22;9649;51.042;13.804;2023-09-07T18:42:35;24.80;1.00
19033;DHT22;9649;51.042;13.804;2023-09-07T18:47:37;24.60;1.00
19033;DHT22;9649;51.042;13.804;2023-09-07T18:52:42;24.50;1.00
19033;DHT22;9649;51.042;13.804;2023-09-07T18:57:45;24.50;1.00
19033;DHT22;9649;51.042;13.804;2023-09-07T19:02:49;24.30;1.00
19033;DHT22;9649;51.042;13.804;2023-09-07T19:07:53;24.00;1.00
19033;DHT22;9649;51.042;13.804;2023-09-07T19:12:56;24.10;1.00
19033;DHT22;9649;51.042;13.804;2023-09-07T19:17:59;23.90;1.00
19033;DHT22;9649;51.042;13.804;2023-09-07T19:23:03;23.80;1.00
19033;DHT22;9649;51.042;13.804;2023-09-07T19:28:06;23.70;1.00
19033;DHT22;9649;51.042;13.804;2023-09-07T19:33:09;23.60;1.00
19033;DHT22;9649;51.042;13.804;2023-09-07T19:38:14;23.50;1.00
19033;DHT22;9649;51.042;13.804;2023-09-07T19:43:18;23.30;1.00
19033;DHT22;9649;51.042;13.804;2023-09-07T19:48:20;23.20;99.90
19033;DHT22;9649;51.042;13.804;2023-09-07T19:53:25;23.00;99.90
19033;DHT22;9649;51.042;13.804;2023-09-07T19:58:29;22.80;99.90
19033;DHT22;9649;51.042;13.804;2023-09-07T20:03:32;22.70;99.90
19033;DHT22;9649;51.042;13.804;2023-09-07T20:08:40;22.40;1.00
19033;DHT22;9649;51.042;13.804;2023-09-07T20:13:44;22.10;1.00
19033;DHT22;9649;51.042;13.804;2023-09-07T20:18:47;21.90;1.00
19033;DHT22;9649;51.042;13.804;2023-09-07T20:23:51;21.80;5.00
19033;DHT22;9649;51.042;13.804;2023-09-07T20:28:54;21.60;99.90
19033;DHT22;9649;51.042;13.804;2023-09-07T20:33:57;21.40;99.90
19033;DHT22;9649;51.042;13.804;2023-09-07T20:39:01;21.20;1.00
19033;DHT22;9649;51.042;13.804;2023-09-07T20:44:07;21.10;1.00
19033;DHT22;9649;51.042;13.804;2023-09-07T20:49:10;21.00;1.00
19033;DHT22;9649;51.042;13.804;2023-09-07T20:54:14;21.00;1.00
19033;DHT22;9649;51.042;13.804;2023-09-07T20:59:17;21.00;1.00
19033;DHT22;9649;51.042;13.804;2023-09-07T21:04:20;21.10;99.90
19033;DHT22;9649;51.042;13.804;2023-09-07T21:09:25;21.00;99.90
19033;DHT22;9649;51.042;13.804;2023-09-07T21:14:29;20.60;1.00
19033;DHT22;9649;51.042;13.804;2023-09-07T21:19:32;20.40;99.90
19033;DHT22;9649;51.042;13.804;2023-09-07T21:24:36;20.40;99.90
19033;DHT22;9649;51.042;13.804;2023-09-07T21:29:39;20.20;99.90
19033;DHT22;9649;51.042;13.804;2023-09-07T21:34:42;20.10;1.00
19033;DHT22;9649;51.042;13.804;2023-09-07T21:39:48;20.00;99.90
19033;DHT22;9649;51.042;13.804;2023-09-07T21:44:51;19.80;1.00
19033;DHT22;9649;51.042;13.804;2023-09-07T21:49:55;19.60;99.90
19033;DHT22;9649;51.042;13.804;2023-09-07T21:54:59;19.50;1.00
19033;DHT22;9649;51.042;13.804;2023-09-07T22:00:02;19.40;1.00
19033;DHT22;9649;51.042;13.804;2023-09-07T22:05:12;19.10;1.00
19033;DHT22;9649;51.042;13.804;2023-09-07T22:10:17;19.00;1.00
19033;DHT22;9649;51.042;13.804;2023-09-07T22:15:20;18.80;99.90
19033;DHT22;9649;51.042;13.804;2023-09-07T22:20:25;18.60;99.90
19033;DHT22;9649;51.042;13.804;2023-09-07T22:25:29;18.50;1.00
19033;DHT22;9649;51.042;13.804;2023-09-07T22:30:32;18.70;1.00
19033;DHT22;9649;51.042;13.804;2023-09-07T22:35:35;18.70;1.00
19033;DHT22;9649;51.042;13.804;2023-09-07T22:40:39;18.80;1.00
19033;DHT22;9649;51.042;13.804;2023-09-07T22:45:42;18.60;1.00
19033;DHT22;9649;51.042;13.804;2023-09-07T22:50:46;18.50;1.00
19033;DHT22;9649;51.042;13.804;2023-09-07T22:55:52;18.00;1.00
19033;DHT22;9649;51.042;13.804;2023-09-07T23:00:55;17.80;1.00
19033;DHT22;9649;51.042;13.804;2023-09-07T23:05:59;17.80;1.00
19033;DHT22;9649;51.042;13.804;2023-09-07T23:11:03;17.80;1.00
19033;DHT22;9649;51.042;13.804;2023-09-07T23:16:07;17.80;1.00
19033;DHT22;9649;51.042;13.804;2023-09-07T23:21:10;17.80;1.00
19033;DHT22;9649;51.042;13.804;2023-09-07T23:26:14;17.90;1.00
19033;DHT22;9649;51.042;13.804;2023-09-07T23:31:22;17.80;1.00
19033;DHT22;9649;51.042;13.804;2023-09-07T23:36:25;17.80;1.00
19033;DHT22;9649;51.042;13.804;2023-09-07T23:41:29;17.60;1.00
19033;DHT22;9649;51.042;13.804;2023-09-07T23:46:32;17.30;19.50
19033;DHT22;9649;51.042;13.804;2023-09-07T23:51:35;17.20;93.50
19033;DHT22;9649;51.042;13.804;2023-09-07T23:56:39;17.00;99.90
